createdAt,value
2019-03-30T00:00:46.727Z,86
2019-03-30T00:01:49.198Z,87
2019-03-30T00:02:51.606Z,87
2019-03-30T00:03:53.633Z,86
2019-03-30T00:04:55.681Z,87
2019-03-30T00:05:57.722Z,86
2019-03-30T00:06:59.774Z,87
2019-03-30T00:08:01.814Z,87
2019-03-30T00:09:03.859Z,87
2019-03-30T00:10:05.908Z,87
2019-03-30T00:11:07.947Z,87
2019-03-30T00:12:10.002Z,87
2019-03-30T00:13:12.042Z,87
2019-03-30T00:14:14.147Z,87
2019-03-30T00:15:16.199Z,87
2019-03-30T00:16:18.614Z,86
2019-03-30T00:17:20.655Z,87
2019-03-30T00:18:22.710Z,87
2019-03-30T00:19:36.010Z,87
2019-03-30T00:20:38.067Z,87
2019-03-30T00:21:40.112Z,86
2019-03-30T00:22:42.143Z,87
2019-03-30T00:23:44.176Z,87
2019-03-30T00:24:46.612Z,87
2019-03-30T00:25:49.050Z,87
2019-03-30T00:26:51.075Z,87
2019-03-30T00:27:53.125Z,88
2019-03-30T00:28:55.857Z,87
2019-03-30T00:29:57.884Z,88
2019-03-30T00:30:59.920Z,88
2019-03-30T00:32:01.961Z,87
2019-03-30T00:33:04.313Z,87
2019-03-30T00:34:06.356Z,87
2019-03-30T00:35:08.401Z,87
2019-03-30T00:36:10.729Z,87
2019-03-30T00:37:12.754Z,88
2019-03-30T00:38:14.791Z,87
2019-03-30T00:39:16.833Z,87
2019-03-30T00:40:18.867Z,86
2019-03-30T00:41:20.917Z,87
2019-03-30T00:42:22.950Z,87
2019-03-30T00:43:24.982Z,87
2019-03-30T00:44:27.008Z,87
2019-03-30T00:45:29.058Z,87
2019-03-30T00:46:31.096Z,87
2019-03-30T00:47:33.412Z,87
2019-03-30T00:48:35.548Z,87
2019-03-30T00:49:50.792Z,87
2019-03-30T00:50:52.827Z,88
2019-03-30T00:51:55.262Z,88
2019-03-30T00:52:57.321Z,87
2019-03-30T00:53:59.623Z,88
2019-03-30T00:55:02.045Z,87
2019-03-30T00:56:04.080Z,88
2019-03-30T00:57:06.127Z,87
2019-03-30T00:58:08.167Z,87
2019-03-30T00:59:10.276Z,87
2019-03-30T01:00:12.303Z,87
2019-03-30T01:01:14.345Z,87
2019-03-30T01:02:16.675Z,87
2019-03-30T01:03:18.707Z,87
2019-03-30T01:04:21.134Z,87
2019-03-30T01:05:23.225Z,88
2019-03-30T01:06:25.545Z,88
2019-03-30T01:07:27.581Z,87
2019-03-30T01:08:29.634Z,87
2019-03-30T01:09:31.680Z,87
2019-03-30T01:10:33.702Z,88
2019-03-30T01:11:35.758Z,87
2019-03-30T01:12:37.833Z,87
2019-03-30T01:13:39.867Z,87
2019-03-30T01:14:41.917Z,87
2019-03-30T01:15:43.954Z,87
2019-03-30T01:16:45.987Z,88
2019-03-30T01:17:48.299Z,88
2019-03-30T01:18:50.349Z,87
2019-03-30T01:20:04.508Z,88
2019-03-30T01:21:06.826Z,87
2019-03-30T01:22:08.867Z,89
2019-03-30T01:23:10.908Z,88
2019-03-30T01:24:12.938Z,88
2019-03-30T01:25:14.978Z,89
2019-03-30T01:26:17.017Z,89
2019-03-30T01:27:19.047Z,88
2019-03-30T01:28:21.172Z,88
2019-03-30T01:29:23.485Z,88
2019-03-30T01:30:25.529Z,88
2019-03-30T01:31:27.567Z,88
2019-03-30T01:32:29.597Z,88
2019-03-30T01:33:32.022Z,88
2019-03-30T01:34:34.077Z,88
2019-03-30T01:35:36.127Z,87
2019-03-30T01:36:38.159Z,88
2019-03-30T01:37:40.195Z,88
2019-03-30T01:38:42.220Z,87
2019-03-30T01:39:44.264Z,87
2019-03-30T01:40:46.302Z,87
2019-03-30T01:41:48.457Z,88
2019-03-30T01:42:50.487Z,88
2019-03-30T01:43:52.537Z,87
2019-03-30T01:44:54.563Z,87
2019-03-30T01:45:56.590Z,87
2019-03-30T01:46:58.624Z,87
2019-03-30T01:48:00.673Z,88
2019-03-30T01:49:02.707Z,88
2019-03-30T01:50:19.132Z,87
2019-03-30T01:51:21.145Z,88
2019-03-30T01:52:23.193Z,88
2019-03-30T01:53:25.273Z,88
2019-03-30T01:54:27.297Z,88
2019-03-30T01:55:29.624Z,89
2019-03-30T01:56:31.644Z,88
2019-03-30T01:57:33.755Z,88
2019-03-30T01:58:35.802Z,88
2019-03-30T01:59:38.111Z,88
2019-03-30T02:00:40.133Z,88
2019-03-30T02:01:42.172Z,88
2019-03-30T02:02:44.229Z,88
2019-03-30T02:03:46.260Z,88
2019-03-30T02:04:48.299Z,88
2019-03-30T02:05:50.344Z,88
2019-03-30T02:06:52.656Z,88
2019-03-30T02:07:54.702Z,88
2019-03-30T02:08:56.735Z,88
2019-03-30T02:09:59.155Z,88
2019-03-30T02:11:01.489Z,88
2019-03-30T02:12:03.520Z,88
2019-03-30T02:13:05.640Z,89
2019-03-30T02:14:07.702Z,88
2019-03-30T02:15:10.407Z,88
2019-03-30T02:16:12.882Z,88
2019-03-30T02:17:14.932Z,88
2019-03-30T02:18:17.246Z,88
2019-03-30T02:19:19.278Z,88
2019-03-30T02:20:31.885Z,88
2019-03-30T02:21:34.190Z,88
2019-03-30T02:22:36.231Z,88
2019-03-30T02:23:38.345Z,88
2019-03-30T02:24:40.395Z,89
2019-03-30T02:25:42.426Z,89
2019-03-30T02:26:44.481Z,88
2019-03-30T02:27:46.524Z,88
2019-03-30T02:28:49.218Z,89
2019-03-30T02:29:51.541Z,89
2019-03-30T02:30:53.588Z,88
2019-03-30T02:31:56.704Z,88
2019-03-30T02:32:59.329Z,88
2019-03-30T02:34:01.409Z,88
2019-03-30T02:35:04.314Z,89
2019-03-30T02:36:06.416Z,89
2019-03-30T02:37:08.510Z,88
2019-03-30T02:38:11.468Z,88
2019-03-30T02:39:13.908Z,88
2019-03-30T02:40:16.628Z,88
2019-03-30T02:41:18.979Z,89
2019-03-30T02:42:21.307Z,88
2019-03-30T02:43:23.386Z,88
2019-03-30T02:44:25.421Z,88
2019-03-30T02:45:27.868Z,88
2019-03-30T02:46:30.491Z,89
2019-03-30T02:47:32.565Z,89
2019-03-30T02:48:35.189Z,88
2019-03-30T02:49:37.339Z,88
2019-03-30T02:50:51.443Z,89
2019-03-30T02:51:54.241Z,88
2019-03-30T02:52:56.457Z,89
2019-03-30T02:53:58.634Z,89
2019-03-30T02:55:01.135Z,89
2019-03-30T02:56:03.921Z,89
2019-03-30T02:57:06.469Z,89
2019-03-30T02:58:08.810Z,89
2019-03-30T02:59:10.865Z,89
2019-03-30T03:00:13.328Z,89
2019-03-30T03:01:15.359Z,89
2019-03-30T03:02:17.969Z,89
2019-03-30T03:03:20.295Z,88
2019-03-30T03:04:22.629Z,89
2019-03-30T03:05:25.327Z,89
2019-03-30T03:06:27.685Z,89
2019-03-30T03:07:30.056Z,89
2019-03-30T03:08:32.089Z,89
2019-03-30T03:09:34.171Z,89
2019-03-30T03:10:36.237Z,89
2019-03-30T03:11:38.267Z,89
2019-03-30T03:12:40.721Z,89
2019-03-30T03:13:43.434Z,89
2019-03-30T03:14:46.158Z,88
2019-03-30T03:15:48.608Z,89
2019-03-30T03:16:50.684Z,89
2019-03-30T03:17:53.025Z,89
2019-03-30T03:18:55.081Z,89
2019-03-30T03:19:58.109Z,89
2019-03-30T03:21:09.654Z,88
2019-03-30T03:22:12.126Z,88
2019-03-30T03:23:14.488Z,89
2019-03-30T03:24:16.820Z,88
2019-03-30T03:25:20.117Z,88
2019-03-30T03:26:22.827Z,88
2019-03-30T03:27:24.849Z,88
2019-03-30T03:28:27.301Z,88
2019-03-30T03:29:29.649Z,89
2019-03-30T03:30:31.715Z,89
2019-03-30T03:31:34.521Z,89
2019-03-30T03:32:37.126Z,89
2019-03-30T03:33:40.339Z,89
2019-03-30T03:34:42.838Z,89
2019-03-30T03:35:45.097Z,89
2019-03-30T03:36:47.537Z,89
2019-03-30T03:37:49.590Z,89
2019-03-30T03:38:51.671Z,89
2019-03-30T03:39:53.743Z,89
2019-03-30T03:40:56.743Z,89
2019-03-30T03:41:59.371Z,89
2019-03-30T03:43:01.410Z,89
2019-03-30T03:44:03.471Z,89
2019-03-30T03:45:06.369Z,89
2019-03-30T03:46:08.718Z,89
2019-03-30T03:47:10.897Z,89
2019-03-30T03:48:12.930Z,89
2019-03-30T03:49:15.533Z,89
2019-03-30T03:50:17.588Z,89
2019-03-30T03:51:27.454Z,89
2019-03-30T03:52:29.594Z,89
2019-03-30T03:53:31.924Z,89
2019-03-30T03:54:34.794Z,89
2019-03-30T03:55:37.509Z,88
2019-03-30T03:56:40.155Z,89
2019-03-30T03:57:42.319Z,89
2019-03-30T03:58:45.518Z,89
2019-03-30T03:59:47.853Z,89
2019-03-30T04:00:51.425Z,89
2019-03-30T04:01:54.235Z,89
2019-03-30T04:02:57.237Z,89
2019-03-30T04:04:00.433Z,89
2019-03-30T04:05:02.992Z,89
2019-03-30T04:06:06.301Z,89
2019-03-30T04:07:09.121Z,89
2019-03-30T04:08:11.862Z,89
2019-03-30T04:09:14.071Z,89
2019-03-30T04:10:16.228Z,90
2019-03-30T04:11:18.974Z,89
2019-03-30T04:12:21.495Z,89
2019-03-30T04:13:24.313Z,89
2019-03-30T04:14:26.863Z,89
2019-03-30T04:15:29.584Z,89
2019-03-30T04:16:32.587Z,90
2019-03-30T04:17:35.462Z,90
2019-03-30T04:18:37.520Z,90
2019-03-30T04:19:39.852Z,90
2019-03-30T04:20:42.613Z,90
2019-03-30T04:21:46.204Z,90
2019-03-30T04:22:48.315Z,90
2019-03-30T04:23:55.217Z,90
2019-03-30T04:24:57.502Z,90
2019-03-30T04:25:59.864Z,90
2019-03-30T04:27:01.958Z,90
2019-03-30T04:28:04.011Z,90
2019-03-30T04:29:06.324Z,90
2019-03-30T04:30:08.376Z,90
2019-03-30T04:31:10.804Z,90
2019-03-30T04:32:13.137Z,90
2019-03-30T04:33:15.501Z,90
2019-03-30T04:34:18.149Z,90
2019-03-30T04:35:21.182Z,90
2019-03-30T04:36:24.158Z,91
2019-03-30T04:37:26.195Z,90
2019-03-30T04:38:28.215Z,90
2019-03-30T04:39:30.841Z,90
2019-03-30T04:40:33.160Z,90
2019-03-30T04:41:35.192Z,90
2019-03-30T04:42:37.252Z,90
2019-03-30T04:43:39.665Z,90
2019-03-30T04:44:41.714Z,90
2019-03-30T04:45:44.066Z,90
2019-03-30T04:46:46.417Z,90
2019-03-30T04:47:48.443Z,90
2019-03-30T04:48:50.595Z,90
2019-03-30T04:49:53.199Z,90
2019-03-30T04:50:55.234Z,90
2019-03-30T04:51:58.959Z,90
2019-03-30T04:53:00.997Z,90
2019-03-30T04:54:03.104Z,90
2019-03-30T04:55:05.149Z,90
2019-03-30T04:56:07.181Z,90
2019-03-30T04:57:09.247Z,90
2019-03-30T04:58:11.289Z,90
2019-03-30T04:59:13.308Z,90
2019-03-30T05:00:16.031Z,90
2019-03-30T05:01:18.426Z,90
2019-03-30T05:02:20.496Z,90
2019-03-30T05:03:22.530Z,90
2019-03-30T05:04:24.971Z,90
2019-03-30T05:05:27.032Z,90
2019-03-30T05:06:29.072Z,90
2019-03-30T05:07:31.106Z,90
2019-03-30T05:08:33.425Z,90
2019-03-30T05:09:35.470Z,90
2019-03-30T05:10:37.894Z,90
2019-03-30T05:11:39.944Z,90
2019-03-30T05:12:42.419Z,90
2019-03-30T05:13:44.748Z,90
2019-03-30T05:14:46.782Z,90
2019-03-30T05:15:48.812Z,90
2019-03-30T05:16:50.848Z,90
2019-03-30T05:17:53.164Z,90
2019-03-30T05:18:55.613Z,90
2019-03-30T05:19:57.943Z,90
2019-03-30T05:20:59.982Z,90
2019-03-30T05:22:17.764Z,90
2019-03-30T05:23:19.800Z,90
2019-03-30T05:24:21.832Z,90
2019-03-30T05:25:24.238Z,90
2019-03-30T05:26:26.275Z,90
2019-03-30T05:27:28.314Z,90
2019-03-30T05:28:30.383Z,89
2019-03-30T05:29:32.419Z,90
2019-03-30T05:30:34.452Z,90
2019-03-30T05:31:36.479Z,90
2019-03-30T05:32:42.558Z,90
2019-03-30T05:33:44.984Z,90
2019-03-30T05:34:47.299Z,90
2019-03-30T05:35:49.611Z,90
2019-03-30T05:36:51.656Z,90
2019-03-30T05:37:53.701Z,90
2019-03-30T05:38:55.734Z,90
2019-03-30T05:39:57.763Z,90
2019-03-30T05:41:00.132Z,90
2019-03-30T05:42:02.523Z,90
2019-03-30T05:43:04.841Z,90
2019-03-30T05:44:07.255Z,90
2019-03-30T05:45:09.579Z,90
2019-03-30T05:46:11.983Z,90
2019-03-30T05:47:14.423Z,90
2019-03-30T05:48:16.741Z,90
2019-03-30T05:49:18.770Z,90
2019-03-30T05:50:20.827Z,90
2019-03-30T05:51:22.852Z,90
2019-03-30T05:52:27.818Z,90
2019-03-30T05:53:30.125Z,90
2019-03-30T05:54:32.167Z,90
2019-03-30T05:55:34.485Z,90
2019-03-30T05:56:36.527Z,90
2019-03-30T05:57:38.569Z,90
2019-03-30T05:58:40.587Z,90
2019-03-30T05:59:42.619Z,90
2019-03-30T06:00:44.655Z,90
2019-03-30T06:01:46.675Z,90
2019-03-30T06:02:48.751Z,90
2019-03-30T06:03:50.792Z,90
2019-03-30T06:04:52.823Z,90
2019-03-30T06:05:54.862Z,90
2019-03-30T06:06:57.277Z,90
2019-03-30T06:07:59.298Z,90
2019-03-30T06:09:01.603Z,89
2019-03-30T06:10:03.950Z,89
2019-03-30T06:11:05.982Z,89
2019-03-30T06:12:08.397Z,89
2019-03-30T06:13:10.439Z,89
2019-03-30T06:14:12.481Z,89
2019-03-30T06:15:14.513Z,89
2019-03-30T06:16:16.549Z,90
2019-03-30T06:17:18.871Z,89
2019-03-30T06:18:20.954Z,89
2019-03-30T06:19:22.968Z,89
2019-03-30T06:20:25.004Z,89
2019-03-30T06:21:27.035Z,89
2019-03-30T06:22:41.605Z,89
2019-03-30T06:23:43.646Z,89
2019-03-30T06:24:45.680Z,89
2019-03-30T06:25:47.710Z,89
2019-03-30T06:26:49.745Z,89
2019-03-30T06:27:51.797Z,89
2019-03-30T06:28:53.835Z,89
2019-03-30T06:29:55.875Z,89
2019-03-30T06:30:58.187Z,89
2019-03-30T06:32:00.217Z,89
2019-03-30T06:33:02.258Z,89
2019-03-30T06:34:04.689Z,89
2019-03-30T06:35:07.005Z,89
2019-03-30T06:36:09.043Z,89
2019-03-30T06:37:11.078Z,89
2019-03-30T06:38:13.111Z,88
2019-03-30T06:39:15.172Z,88
2019-03-30T06:40:17.216Z,88
2019-03-30T06:41:19.245Z,88
2019-03-30T06:42:21.285Z,88
2019-03-30T06:43:23.720Z,88
2019-03-30T06:44:25.741Z,88
2019-03-30T06:45:27.784Z,88
2019-03-30T06:46:29.824Z,88
2019-03-30T06:47:32.140Z,88
2019-03-30T06:48:37.076Z,88
2019-03-30T06:49:39.113Z,88
2019-03-30T06:50:41.165Z,88
2019-03-30T06:51:43.193Z,87
2019-03-30T06:52:59.563Z,87
2019-03-30T06:54:01.608Z,88
2019-03-30T06:55:04.311Z,87
2019-03-30T06:56:06.336Z,87
2019-03-30T06:57:08.375Z,87
2019-03-30T06:58:10.416Z,86
2019-03-30T06:59:12.451Z,87
2019-03-30T07:00:14.867Z,86
2019-03-30T07:01:16.928Z,87
2019-03-30T07:02:18.958Z,87
2019-03-30T07:03:21.275Z,86
2019-03-30T07:04:23.696Z,86
2019-03-30T07:05:25.718Z,86
2019-03-30T07:06:27.752Z,86
2019-03-30T07:07:29.785Z,86
2019-03-30T07:08:31.908Z,85
2019-03-30T07:09:33.947Z,85
2019-03-30T07:10:39.629Z,85
2019-03-30T07:11:41.940Z,85
2019-03-30T07:12:44.337Z,85
2019-03-30T07:13:46.664Z,85
2019-03-30T07:14:48.691Z,85
2019-03-30T07:15:51.005Z,84
2019-03-30T07:16:53.052Z,84
2019-03-30T07:17:55.078Z,84
2019-03-30T07:18:57.114Z,84
2019-03-30T07:19:59.552Z,84
2019-03-30T07:21:01.579Z,84
2019-03-30T07:22:03.629Z,83
2019-03-30T07:23:13.917Z,83
2019-03-30T07:24:15.957Z,83
2019-03-30T07:25:17.974Z,82
2019-03-30T07:26:20.020Z,82
2019-03-30T07:27:22.055Z,82
2019-03-30T07:28:24.139Z,82
2019-03-30T07:29:26.276Z,82
2019-03-30T07:30:28.317Z,81
2019-03-30T07:31:30.354Z,81
2019-03-30T07:32:32.397Z,81
2019-03-30T07:33:34.478Z,81
2019-03-30T07:34:36.790Z,81
2019-03-30T07:35:39.121Z,80
2019-03-30T07:36:41.441Z,81
2019-03-30T07:37:43.473Z,80
2019-03-30T07:38:45.909Z,79
2019-03-30T07:39:47.940Z,79
2019-03-30T07:40:49.970Z,79
2019-03-30T07:41:52.320Z,79
2019-03-30T07:42:54.363Z,79
2019-03-30T07:43:56.395Z,78
2019-03-30T07:44:58.436Z,79
2019-03-30T07:46:00.530Z,78
2019-03-30T07:47:02.909Z,78
2019-03-30T07:48:05.248Z,77
2019-03-30T07:49:07.617Z,77
2019-03-30T07:50:09.639Z,78
2019-03-30T07:51:11.689Z,78
2019-03-30T07:52:13.718Z,77
2019-03-30T07:53:28.028Z,76
2019-03-30T07:54:30.080Z,76
2019-03-30T07:55:32.112Z,75
2019-03-30T07:56:34.507Z,73
2019-03-30T07:57:36.545Z,74
2019-03-30T07:58:38.627Z,72
2019-03-30T07:59:40.937Z,72
2019-03-30T08:00:43.943Z,71
2019-03-30T08:01:45.982Z,70
2019-03-30T08:02:48.017Z,70
2019-03-30T08:03:50.065Z,69
2019-03-30T08:04:52.108Z,69
2019-03-30T08:05:55.364Z,68
2019-03-30T08:06:57.401Z,68
2019-03-30T08:07:59.750Z,67
2019-03-30T08:09:01.816Z,65
2019-03-30T08:10:04.135Z,65
2019-03-30T08:11:06.178Z,64
2019-03-30T08:12:08.253Z,64
2019-03-30T08:13:10.297Z,64
2019-03-30T08:14:12.609Z,63
2019-03-30T08:15:14.661Z,63
2019-03-30T08:16:16.698Z,61
2019-03-30T08:17:18.735Z,61
2019-03-30T08:18:20.775Z,62
2019-03-30T08:19:22.870Z,60
2019-03-30T08:20:24.988Z,59
2019-03-30T08:21:27.033Z,59
2019-03-30T08:22:29.080Z,59
2019-03-30T08:23:41.643Z,59
2019-03-30T08:24:43.703Z,60
2019-03-30T08:25:45.768Z,58
2019-03-30T08:26:47.806Z,57
2019-03-30T08:27:49.861Z,57
2019-03-30T08:28:52.184Z,57
2019-03-30T08:29:54.235Z,57
2019-03-30T08:30:56.288Z,56
2019-03-30T08:31:58.350Z,57
2019-03-30T08:33:00.379Z,55
2019-03-30T08:34:02.433Z,55
2019-03-30T08:35:04.487Z,54
2019-03-30T08:36:06.564Z,54
2019-03-30T08:37:08.639Z,54
2019-03-30T08:38:10.682Z,55
2019-03-30T08:39:12.726Z,54
2019-03-30T08:40:15.131Z,54
2019-03-30T08:41:17.466Z,54
2019-03-30T08:42:19.601Z,54
2019-03-30T08:43:22.224Z,54
2019-03-30T08:44:24.287Z,54
2019-03-30T08:45:26.321Z,53
2019-03-30T08:46:28.395Z,53
2019-03-30T08:47:30.727Z,52
2019-03-30T08:48:32.793Z,53
2019-03-30T08:49:34.841Z,53
2019-03-30T08:50:37.157Z,53
2019-03-30T08:51:39.215Z,53
2019-03-30T08:52:41.256Z,53
2019-03-30T08:53:55.795Z,52
2019-03-30T08:54:58.119Z,52
2019-03-30T08:56:00.173Z,53
2019-03-30T08:57:02.217Z,53
2019-03-30T08:58:04.287Z,53
2019-03-30T08:59:06.641Z,53
2019-03-30T09:00:08.685Z,52
2019-03-30T09:01:10.759Z,51
2019-03-30T09:02:12.798Z,51
2019-03-30T09:03:14.855Z,51
2019-03-30T09:04:16.913Z,51
2019-03-30T09:05:19.253Z,51
2019-03-30T09:06:21.312Z,51
2019-03-30T09:07:23.365Z,52
2019-03-30T09:08:25.418Z,51
2019-03-30T09:09:27.464Z,50
2019-03-30T09:10:29.802Z,50
2019-03-30T09:11:31.846Z,51
2019-03-30T09:12:33.886Z,50
2019-03-30T09:13:35.931Z,51
2019-03-30T09:14:37.998Z,51
2019-03-30T09:15:40.046Z,51
2019-03-30T09:16:42.093Z,50
2019-03-30T09:17:44.148Z,50
2019-03-30T09:18:46.242Z,49
2019-03-30T09:19:48.296Z,48
2019-03-30T09:20:50.353Z,48
2019-03-30T09:21:52.682Z,47
2019-03-30T09:22:54.766Z,49
2019-03-30T09:24:11.426Z,49
2019-03-30T09:25:13.479Z,49
2019-03-30T09:26:17.531Z,50
2019-03-30T09:27:20.253Z,50
2019-03-30T09:28:22.305Z,50
2019-03-30T09:29:24.360Z,49
2019-03-30T09:30:26.452Z,49
2019-03-30T09:31:28.581Z,49
2019-03-30T09:32:30.924Z,49
2019-03-30T09:33:33.355Z,48
2019-03-30T09:34:35.571Z,48
2019-03-30T09:35:38.030Z,48
2019-03-30T09:36:40.845Z,47
2019-03-30T09:37:43.234Z,48
2019-03-30T09:38:45.310Z,48
2019-03-30T09:39:48.011Z,46
2019-03-30T09:40:50.082Z,46
2019-03-30T09:41:52.141Z,47
2019-03-30T09:42:54.508Z,45
2019-03-30T09:43:56.569Z,46
2019-03-30T09:44:59.397Z,46
2019-03-30T09:46:01.452Z,44
2019-03-30T09:47:03.501Z,44
2019-03-30T09:48:05.568Z,44
2019-03-30T09:49:07.921Z,45
2019-03-30T09:50:09.989Z,45
2019-03-30T09:51:12.040Z,43
2019-03-30T09:52:14.092Z,43
2019-03-30T09:53:16.151Z,44
2019-03-30T09:54:25.368Z,43
2019-03-30T09:55:28.346Z,43
2019-03-30T09:56:30.399Z,43
2019-03-30T09:57:32.474Z,43
2019-03-30T09:58:34.521Z,42
2019-03-30T09:59:36.592Z,43
2019-03-30T10:00:38.650Z,42
2019-03-30T10:01:40.704Z,42
2019-03-30T10:02:42.759Z,43
2019-03-30T10:03:44.919Z,43
2019-03-30T10:04:46.959Z,42
2019-03-30T10:05:49.302Z,42
2019-03-30T10:06:51.361Z,43
2019-03-30T10:07:53.416Z,42
2019-03-30T10:08:55.823Z,43
2019-03-30T10:09:58.167Z,42
2019-03-30T10:11:00.224Z,42
2019-03-30T10:12:02.259Z,40
2019-03-30T10:13:04.729Z,41
2019-03-30T10:14:06.790Z,41
2019-03-30T10:15:08.848Z,41
2019-03-30T10:16:10.915Z,41
2019-03-30T10:17:22.416Z,41
2019-03-30T10:18:35.003Z,40
2019-03-30T10:19:39.075Z,41
2019-03-30T10:20:41.192Z,41
2019-03-30T10:21:43.317Z,39
2019-03-30T10:22:45.802Z,39
2019-03-30T10:23:48.326Z,38
2019-03-30T10:24:50.403Z,39
2019-03-30T10:25:52.779Z,38
2019-03-30T10:26:54.919Z,39
2019-03-30T10:28:09.704Z,38
2019-03-30T10:29:11.822Z,39
2019-03-30T10:30:15.227Z,39
2019-03-30T10:31:17.476Z,38
2019-03-30T10:32:20.198Z,39
2019-03-30T10:33:22.825Z,39
2019-03-30T10:34:26.535Z,40
2019-03-30T10:35:30.792Z,40
2019-03-30T10:36:37.849Z,39
2019-03-30T10:37:41.960Z,39
2019-03-30T10:38:45.046Z,39
2019-03-30T10:39:48.993Z,39
2019-03-30T10:40:55.193Z,39
2019-03-30T10:41:58.736Z,39
2019-03-30T10:43:03.635Z,38
2019-03-30T10:44:09.982Z,38
2019-03-30T10:45:18.581Z,37
2019-03-30T10:46:28.493Z,38
2019-03-30T10:47:36.728Z,39
2019-03-30T10:48:45.306Z,39
2019-03-30T10:49:54.162Z,38
2019-03-30T10:51:01.979Z,39
2019-03-30T10:52:12.187Z,38
2019-03-30T10:53:20.479Z,38
2019-03-30T10:54:26.670Z,39
2019-03-30T10:55:35.534Z,40
2019-03-30T10:56:42.816Z,40
2019-03-30T10:57:52.482Z,40
2019-03-30T10:59:01.968Z,40
2019-03-30T11:00:11.109Z,41
2019-03-30T11:01:19.070Z,41
2019-03-30T11:02:27.671Z,40
2019-03-30T11:03:36.589Z,40
2019-03-30T11:04:43.891Z,41
2019-03-30T11:05:52.160Z,42
2019-03-30T11:07:02.919Z,42
2019-03-30T11:08:12.119Z,42
2019-03-30T11:09:18.935Z,42
2019-03-30T11:10:28.626Z,42
2019-03-30T11:11:38.445Z,42
2019-03-30T11:12:48.399Z,42
2019-03-30T11:13:57.515Z,42
2019-03-30T11:15:07.694Z,42
2019-03-30T11:16:17.009Z,41
2019-03-30T11:17:26.926Z,41
2019-03-30T11:18:38.276Z,41
2019-03-30T11:19:50.404Z,41
2019-03-30T11:21:02.198Z,41
2019-03-30T11:22:11.846Z,42
2019-03-30T11:23:23.527Z,41
2019-03-30T11:24:34.036Z,41
2019-03-30T11:25:45.351Z,42
2019-03-30T11:26:57.654Z,42
2019-03-30T11:28:07.468Z,42
2019-03-30T11:29:19.000Z,42
2019-03-30T11:30:27.089Z,43
2019-03-30T11:31:39.970Z,43
2019-03-30T11:32:52.979Z,41
2019-03-30T11:34:06.881Z,42
2019-03-30T11:35:19.298Z,42
2019-03-30T11:36:28.931Z,42
2019-03-30T11:37:39.277Z,42
2019-03-30T11:38:48.633Z,43
2019-03-30T11:39:59.257Z,42
2019-03-30T11:41:11.357Z,43
2019-03-30T11:42:20.669Z,42
2019-03-30T11:43:30.472Z,43
2019-03-30T11:44:41.246Z,42
2019-03-30T11:45:53.092Z,41
2019-03-30T11:47:04.456Z,41
2019-03-30T11:48:13.868Z,41
2019-03-30T11:49:23.892Z,39
2019-03-30T11:50:34.182Z,40
2019-03-30T11:51:44.142Z,38
2019-03-30T11:52:55.104Z,38
2019-03-30T11:54:07.728Z,38
2019-03-30T11:55:25.041Z,38
2019-03-30T11:56:39.216Z,38
2019-03-30T11:57:49.073Z,38
2019-03-30T11:58:56.625Z,38
2019-03-30T12:00:04.330Z,36
2019-03-30T12:01:14.127Z,36
2019-03-30T12:02:31.622Z,37
2019-03-30T12:03:40.623Z,37
2019-03-30T12:04:49.858Z,36
2019-03-30T12:05:55.835Z,37
2019-03-30T12:07:00.806Z,37
2019-03-30T12:08:02.871Z,36
2019-03-30T12:09:05.561Z,36
2019-03-30T12:10:07.612Z,35
2019-03-30T12:11:09.692Z,34
2019-03-30T12:12:11.750Z,35
2019-03-30T12:13:13.799Z,34
2019-03-30T12:14:15.850Z,35
2019-03-30T12:15:17.913Z,34
2019-03-30T12:16:19.964Z,35
2019-03-30T12:17:22.028Z,35
2019-03-30T12:18:24.483Z,34
2019-03-30T12:19:26.544Z,33
2019-03-30T12:20:28.600Z,34
2019-03-30T12:21:30.659Z,33
2019-03-30T12:22:32.707Z,33
2019-03-30T12:23:34.760Z,33
2019-03-30T12:24:37.204Z,33
2019-03-30T12:25:39.279Z,32
2019-03-30T12:26:41.610Z,33
2019-03-30T12:27:43.969Z,33
2019-03-30T12:28:46.028Z,33
2019-03-30T12:29:48.078Z,32
2019-03-30T12:30:50.148Z,31
2019-03-30T12:31:52.493Z,32
2019-03-30T12:32:54.870Z,31
2019-03-30T12:33:56.938Z,31
2019-03-30T12:34:59.011Z,30
2019-03-30T12:36:01.055Z,30
2019-03-30T12:37:03.132Z,30
2019-03-30T12:38:05.208Z,30
2019-03-30T12:39:07.259Z,30
2019-03-30T12:40:09.622Z,31
2019-03-30T12:41:11.673Z,30
2019-03-30T12:42:13.721Z,31
2019-03-30T12:43:15.774Z,31
2019-03-30T12:44:17.886Z,31
2019-03-30T12:45:19.961Z,30
2019-03-30T12:46:22.019Z,30
2019-03-30T12:47:24.079Z,31
2019-03-30T12:48:26.414Z,30
2019-03-30T12:49:28.476Z,30
2019-03-30T12:50:30.541Z,29
2019-03-30T12:51:32.586Z,29
2019-03-30T12:52:34.648Z,30
2019-03-30T12:53:51.407Z,30
2019-03-30T12:54:53.458Z,29
2019-03-30T12:55:55.539Z,29
2019-03-30T12:56:57.603Z,29
2019-03-30T12:57:59.943Z,29
2019-03-30T12:59:02.006Z,29
2019-03-30T13:00:04.388Z,30
2019-03-30T13:01:06.436Z,30
2019-03-30T13:02:08.513Z,30
2019-03-30T13:03:10.579Z,31
2019-03-30T13:04:12.632Z,30
2019-03-30T13:05:14.702Z,31
2019-03-30T13:06:17.048Z,31
2019-03-30T13:07:19.110Z,31
2019-03-30T13:08:21.192Z,31
2019-03-30T13:09:23.269Z,31
2019-03-30T13:10:25.599Z,30
2019-03-30T13:11:27.724Z,31
2019-03-30T13:12:29.807Z,30
2019-03-30T13:13:31.862Z,31
2019-03-30T13:14:33.931Z,31
2019-03-30T13:15:35.993Z,31
2019-03-30T13:16:38.054Z,30
2019-03-30T13:17:40.100Z,30
2019-03-30T13:18:42.156Z,30
2019-03-30T13:19:44.257Z,30
2019-03-30T13:20:46.706Z,30
2019-03-30T13:21:54.103Z,30
2019-03-30T13:22:56.168Z,31
2019-03-30T13:23:58.247Z,32
2019-03-30T13:25:00.393Z,31
2019-03-30T13:26:05.393Z,30
2019-03-30T13:27:07.555Z,30
2019-03-30T13:28:09.622Z,30
2019-03-30T13:29:11.682Z,31
2019-03-30T13:30:14.162Z,30
2019-03-30T13:31:16.243Z,30
2019-03-30T13:32:18.606Z,30
2019-03-30T13:33:20.686Z,31
2019-03-30T13:34:22.757Z,31
2019-03-30T13:35:24.818Z,32
2019-03-30T13:36:26.891Z,32
2019-03-30T13:37:29.240Z,31
2019-03-30T13:38:31.342Z,32
2019-03-30T13:39:33.395Z,32
2019-03-30T13:40:35.460Z,31
2019-03-30T13:41:37.503Z,31
2019-03-30T13:42:39.575Z,31
2019-03-30T13:43:41.629Z,31
2019-03-30T13:44:43.693Z,31
2019-03-30T13:45:45.761Z,32
2019-03-30T13:46:47.817Z,31
2019-03-30T13:47:49.875Z,32
2019-03-30T13:48:51.936Z,31
2019-03-30T13:49:54.038Z,31
2019-03-30T13:50:56.100Z,32
2019-03-30T13:51:58.165Z,31
2019-03-30T13:53:00.601Z,32
2019-03-30T13:54:02.664Z,32
2019-03-30T13:55:05.014Z,31
2019-03-30T13:56:18.812Z,31
2019-03-30T13:57:20.870Z,32
2019-03-30T13:58:22.939Z,30
2019-03-30T13:59:25.076Z,31
2019-03-30T14:00:27.517Z,31
2019-03-30T14:01:29.591Z,31
2019-03-30T14:02:31.965Z,31
2019-03-30T14:03:34.020Z,30
2019-03-30T14:04:36.363Z,30
2019-03-30T14:05:38.412Z,31
2019-03-30T14:06:40.487Z,30
2019-03-30T14:07:42.534Z,30
2019-03-30T14:08:44.592Z,30
2019-03-30T14:09:47.044Z,30
2019-03-30T14:10:49.401Z,31
2019-03-30T14:11:51.474Z,31
2019-03-30T14:12:53.530Z,31
2019-03-30T14:13:55.906Z,31
2019-03-30T14:14:57.944Z,30
2019-03-30T14:16:00.026Z,31
2019-03-30T14:17:02.074Z,30
2019-03-30T14:18:04.139Z,29
2019-03-30T14:19:06.211Z,30
2019-03-30T14:20:08.655Z,29
2019-03-30T14:21:10.713Z,29
2019-03-30T14:22:12.793Z,30
2019-03-30T14:23:14.852Z,30
2019-03-30T14:24:16.933Z,31
2019-03-30T14:25:19.004Z,31
2019-03-30T14:26:32.614Z,30
2019-03-30T14:27:34.680Z,29
2019-03-30T14:28:36.747Z,29
2019-03-30T14:29:38.801Z,30
2019-03-30T14:30:40.866Z,29
2019-03-30T14:31:42.965Z,29
2019-03-30T14:32:45.024Z,29
2019-03-30T14:33:47.445Z,29
2019-03-30T14:34:49.515Z,30
2019-03-30T14:35:51.577Z,30
2019-03-30T14:36:53.639Z,29
2019-03-30T14:37:56.350Z,30
2019-03-30T14:38:58.701Z,30
2019-03-30T14:40:01.219Z,30
2019-03-30T14:41:04.875Z,30
2019-03-30T14:42:07.322Z,29
2019-03-30T14:43:09.379Z,29
2019-03-30T14:44:11.436Z,29
2019-03-30T14:45:13.501Z,29
2019-03-30T14:46:15.561Z,30
2019-03-30T14:47:17.635Z,29
2019-03-30T14:48:19.698Z,29
2019-03-30T14:49:21.769Z,29
2019-03-30T14:50:23.837Z,29
2019-03-30T14:51:25.893Z,30
2019-03-30T14:52:28.267Z,30
2019-03-30T14:53:30.320Z,30
2019-03-30T14:54:32.374Z,30
2019-03-30T14:55:34.434Z,30
2019-03-30T14:56:47.059Z,30
2019-03-30T14:57:49.127Z,29
2019-03-30T14:58:51.665Z,29
2019-03-30T14:59:53.874Z,29
2019-03-30T15:00:56.236Z,29
2019-03-30T15:01:58.457Z,29